Time;durP1;ratioP1;P1;durP2;ratioP2;P2;SDS_P1;SDS_P2;PMS_P1;PMS_P2;Temp;Humidity;BMP_temperature;BMP_pressure;BME280_temperature;BME280_humidity;BME280_pressure;Samples;Min_cycle;Max_cycle;Signal;HPM_P1;HPM_P2
2024/02/10 00:01:02;;;;;;;26.10;16.30;;;;;;;6.97;78.11;95193.19;104635;1264;101177;-78
2024/02/10 00:04:16;;;;;;;29.10;17.90;;;;;;;6.92;78.32;95197.40;104675;1262;100465;-79
2024/02/10 00:07:06;;;;;;;32.40;18.20;;;;;;;6.92;78.64;95194.45;104616;1262;99263;-81
2024/02/10 00:10:04;;;;;;;34.70;20.60;;;;;;;6.92;78.89;95197.17;104583;1261;97519;-77
2024/02/10 00:12:59;;;;;;;37.40;20.80;;;;;;;6.89;79.01;95201.64;104660;1261;96566;-78
2024/02/10 00:16:06;;;;;;;39.80;21.50;;;;;;;6.89;79.26;95203.24;104628;1264;102490;-77
2024/02/10 00:18:57;;;;;;;53.30;47.50;;;;;;;6.89;79.43;95202.87;104598;1261;100411;-79
2024/02/10 00:22:06;;;;;;;33.70;23.40;;;;;;;6.91;79.63;95203.91;104646;1277;98939;-78
2024/02/10 00:25:09;;;;;;;30.60;18.20;;;;;;;6.91;79.81;95205.15;104729;1262;96701;-77
2024/02/10 00:28:06;;;;;;;23.90;16.50;;;;;;;6.86;80.19;95202.56;104606;1261;97795;-77
2024/02/10 00:31:13;;;;;;;29.90;16.80;;;;;;;6.84;80.29;95204.30;104604;1263;101562;-79
2024/02/10 00:34:22;;;;;;;25.40;17.00;;;;;;;6.87;80.41;95208.17;104573;1257;101396;-78
2024/02/10 00:37:16;;;;;;;29.10;16.90;;;;;;;6.88;80.58;95207.69;104707;1263;99141;-79
2024/02/10 00:40:23;;;;;;;21.70;14.90;;;;;;;6.89;80.80;95209.84;104580;1275;97950;-78
2024/02/10 00:43:13;;;;;;;25.40;15.50;;;;;;;6.90;80.95;95207.75;104140;1280;98567;-78
2024/02/10 00:46:10;;;;;;;25.40;14.80;;;;;;;6.90;81.13;95209.27;104218;1267;102233;-79
2024/02/10 00:48:56;;;;;;;23.60;15.30;;;;;;;6.89;81.28;95210.21;104193;1268;100786;-82
2024/02/10 00:51:48;;;;;;;25.00;16.30;;;;;;;6.90;81.39;95210.23;104187;1268;98680;-80
2024/02/10 00:54:55;;;;;;;24.50;15.80;;;;;;;6.91;81.49;95211.70;104220;1268;97252;-82
2024/02/10 00:57:50;;;;;;;25.00;16.50;;;;;;;6.91;81.56;95209.71;104220;1264;97168;-80
2024/02/10 01:00:37;;;;;;;25.20;17.10;;;;;;;6.92;81.74;95206.56;104158;1268;102255;-81
2024/02/10 01:03:44;;;;;;;33.90;19.60;;;;;;;6.94;81.70;95206.77;104136;1271;109536;-81
2024/02/10 01:06:28;;;;;;;31.20;19.40;;;;;;;6.94;81.74;95198.40;104161;1269;99522;-82
2024/02/10 01:09:35;;;;;;;28.20;18.60;;;;;;;6.95;81.81;95195.40;104175;1265;96757;-81
2024/02/10 01:12:41;;;;;;;26.00;17.40;;;;;;;6.94;81.95;95191.21;104155;1269;97409;-82
2024/02/10 01:15:24;;;;;;;25.60;16.80;;;;;;;6.91;82.04;95186.45;104180;1278;101048;-82
2024/02/10 01:18:33;;;;;;;22.80;14.40;;;;;;;6.89;82.24;95184.36;104182;1269;101615;-80
2024/02/10 01:21:29;;;;;;;24.90;14.00;;;;;;;6.88;82.33;95182.36;104464;1263;100065;-81
2024/02/10 01:24:36;;;;;;;23.90;17.00;;;;;;;6.85;82.49;95173.90;104334;1263;97794;-82
2024/02/10 01:27:36;;;;;;;20.00;13.60;;;;;;;6.84;82.65;95167.77;104199;1268;97026;-81
2024/02/10 01:30:43;;;;;;;17.40;12.10;;;;;;;6.81;82.91;95161.17;104220;1267;102218;-83
2024/02/10 01:33:51;;;;;;;19.40;12.20;;;;;;;6.78;83.10;95160.80;104189;1265;101216;-80
2024/02/10 01:36:48;;;;;;;20.60;12.80;;;;;;;6.77;83.46;95158.95;104145;1270;100284;-81
2024/02/10 01:39:35;;;;;;;21.20;12.90;;;;;;;6.78;83.63;95156.61;104081;1267;96664;-86
2024/02/10 01:42:37;;;;;;;19.90;12.50;;;;;;;6.82;83.68;95155.77;104211;1268;97558;-84
2024/02/10 01:45:45;;;;;;;24.40;13.90;;;;;;;6.84;83.74;95154.10;104119;1271;102265;-84
2024/02/10 01:48:44;;;;;;;19.90;13.10;;;;;;;6.87;83.73;95153.02;104129;1277;101388;-82
2024/02/10 01:51:51;;;;;;;21.60;12.90;;;;;;;6.89;83.88;95152.71;104162;1279;100211;-82
2024/02/10 01:54:58;;;;;;;21.40;13.70;;;;;;;6.88;84.06;95149.98;104167;1268;97558;-83
2024/02/10 01:58:04;;;;;;;22.70;14.70;;;;;;;6.88;84.18;95147.08;104183;1271;98511;-83
2024/02/10 02:01:00;;;;;;;19.80;14.10;;;;;;;6.89;84.16;95147.89;104182;1267;101132;-83
2024/02/10 02:03:58;;;;;;;19.60;12.50;;;;;;;6.88;84.06;95141.50;104214;1269;101779;-83
2024/02/10 02:07:05;;;;;;;20.50;14.00;;;;;;;6.87;84.08;95137.73;104665;1262;98628;-84
2024/02/10 02:10:01;;;;;;;22.70;13.10;;;;;;;6.85;84.03;95140.23;104607;1256;97423;-85
2024/02/10 02:13:08;;;;;;;25.90;14.60;;;;;;;6.84;84.00;95140.90;104681;1262;97002;-83
2024/02/10 02:16:17;;;;;;;25.70;17.70;;;;;;;6.84;83.96;95143.48;104692;1275;102229;-83
2024/02/10 02:19:17;;;;;;;24.00;15.50;;;;;;;6.84;83.95;95134.35;104709;1262;101342;-82
2024/02/10 02:22:27;;;;;;;29.10;14.60;;;;;;;6.83;83.95;95135.24;104626;1263;99647;-86
2024/02/10 02:25:17;;;;;;;21.00;13.80;;;;;;;6.79;83.97;95133.27;104544;1265;97625;-85
2024/02/10 02:28:23;;;;;;;20.60;14.50;;;;;;;6.77;84.04;95133.42;104548;1263;97085;-86
2024/02/10 02:31:30;;;;;;;24.40;14.40;;;;;;;6.74;84.09;95129.80;104611;1269;100848;-82
2024/02/10 02:34:37;;;;;;;19.60;13.60;;;;;;;6.71;84.19;95125.78;104630;1273;101162;-82
2024/02/10 02:37:43;;;;;;;26.30;16.00;;;;;;;6.69;84.18;95119.45;104612;1278;106596;-81
2024/02/10 02:40:50;;;;;;;23.60;15.10;;;;;;;6.65;84.46;95121.89;104682;1270;97899;-81
2024/02/10 02:43:57;;;;;;;19.00;13.10;;;;;;;6.61;84.60;95122.39;104605;1261;97048;-84
2024/02/10 02:47:05;;;;;;;21.70;15.10;;;;;;;6.58;84.74;95120.40;104622;1263;101318;-76
2024/02/10 02:50:02;;;;;;;26.60;15.20;;;;;;;6.55;84.92;95117.29;104713;1261;103064;-78
2024/02/10 02:53:09;;;;;;;22.70;16.00;;;;;;;6.55;84.96;95111.98;104455;1268;106379;-78
2024/02/10 02:56:18;;;;;;;22.20;15.50;;;;;;;6.55;85.10;95117.13;104592;1275;96878;-77
2024/02/10 02:59:28;;;;;;;21.60;14.40;;;;;;;6.56;85.22;95117.89;104617;1263;97107;-86
2024/02/10 03:02:38;;;;;;;45.20;40.30;;;;;;;6.56;85.20;95115.16;104649;1269;102475;-82
2024/02/10 03:05:45;;;;;;;20.60;15.50;;;;;;;6.57;85.21;95115.88;104617;1270;101401;-82
2024/02/10 03:08:50;;;;;;;20.70;15.10;;;;;;;6.56;85.13;95116.27;104630;1262;97762;-82
2024/02/10 03:11:49;;;;;;;20.30;14.20;;;;;;;6.56;85.27;95115.16;104664;1262;96759;-82
2024/02/10 03:14:37;;;;;;;19.60;14.60;;;;;;;6.57;85.43;95118.02;104623;1270;98482;-83
2024/02/10 03:17:46;;;;;;;27.20;14.50;;;;;;;6.58;85.45;95114.88;104694;1270;102202;-77
2024/02/10 03:20:38;;;;;;;21.60;14.20;;;;;;;6.58;85.49;95113.80;104677;1260;102666;-84
2024/02/10 03:23:45;;;;;;;30.90;19.30;;;;;;;6.59;85.53;95112.48;104666;1270;99004;-82
2024/02/10 03:26:52;;;;;;;23.10;15.60;;;;;;;6.58;85.66;95111.29;104623;1271;96663;-83
2024/02/10 03:30:00;;;;;;;19.20;14.60;;;;;;;6.59;85.68;95110.33;104590;1263;97898;-82
2024/02/10 03:33:07;;;;;;;18.60;14.30;;;;;;;6.61;85.65;95110.70;104613;1262;102367;-84
2024/02/10 03:36:12;;;;;;;21.70;15.20;;;;;;;6.62;85.69;95112.91;104634;1262;101751;-85
2024/02/10 03:39:20;;;;;;;19.90;14.60;;;;;;;6.62;85.71;95111.83;104614;1270;99682;-82
2024/02/10 03:42:27;;;;;;;21.90;14.00;;;;;;;6.60;85.66;95114.91;104646;1271;96598;-83
2024/02/10 03:45:36;;;;;;;20.60;14.00;;;;;;;6.59;85.67;95116.98;104631;1262;97074;-82
2024/02/10 03:48:44;;;;;;;18.00;13.40;;;;;;;6.59;85.74;95122.94;104620;1263;101269;-83
2024/02/10 03:51:43;;;;;;;30.80;13.80;;;;;;;6.57;85.74;95117.38;104622;1278;100372;-82
2024/02/10 03:54:51;;;;;;;21.50;14.30;;;;;;;6.56;85.73;95118.67;104680;1270;99193;-83
2024/02/10 03:57:59;;;;;;;23.00;14.30;;;;;;;6.56;85.71;95127.16;104673;1262;96572;-84
2024/02/10 04:01:05;;;;;;;24.40;14.40;;;;;;;6.58;85.73;95132.41;104716;1270;97892;-77
2024/02/10 04:03:56;;;;;;;17.80;14.10;;;;;;;6.57;85.89;95122.73;104638;1259;102218;-77
2024/02/10 04:06:46;;;;;;;19.40;14.60;;;;;;;6.55;85.87;95116.48;104582;1263;101396;-77
2024/02/10 04:09:52;;;;;;;20.00;14.70;;;;;;;6.54;85.84;95114.64;104689;1278;99388;-78
2024/02/10 04:13:02;;;;;;;21.50;14.30;;;;;;;6.52;86.02;95120.83;104722;1270;96572;-76
2024/02/10 04:15:37;;;;;;;24.30;14.60;;;;;;;6.53;86.13;95120.52;104803;1260;97223;-76
2024/02/10 04:18:44;;;;;;;20.90;14.40;;;;;;;6.54;86.14;95123.17;104733;1260;100707;-77
2024/02/10 04:21:41;;;;;;;22.50;14.50;;;;;;;6.53;86.19;95121.21;104597;1273;101028;-77
2024/02/10 04:24:48;;;;;;;20.90;14.60;;;;;;;6.48;86.24;95118.36;104700;1260;99949;-76
2024/02/10 04:27:34;;;;;;;23.30;14.80;;;;;;;6.46;86.28;95119.98;104628;1269;97513;-76
2024/02/10 04:30:34;;;;;;;24.00;14.90;;;;;;;6.46;86.37;95122.45;104580;1262;97906;-77
2024/02/10 04:33:46;;;;;;;20.80;14.40;;;;;;;6.46;86.49;95121.96;104646;1257;102193;-76
2024/02/10 04:36:53;;;;;;;22.00;16.30;;;;;;;6.45;86.56;95118.07;104635;1271;101432;-76
2024/02/10 04:40:00;;;;;;;22.30;15.00;;;;;;;6.45;86.55;95117.33;104561;1273;99639;-78
2024/02/10 04:42:40;;;;;;;22.20;15.40;;;;;;;6.45;86.57;95119.52;104556;1268;96588;-76
2024/02/10 04:45:45;;;;;;;21.20;15.00;;;;;;;6.44;86.52;95118.05;104666;1257;96966;-77
2024/02/10 04:48:42;;;;;;;25.20;16.00;;;;;;;6.44;86.70;95125.02;104708;1270;101513;-77
2024/02/10 04:51:43;;;;;;;22.30;16.00;;;;;;;6.44;86.71;95119.29;104594;1271;101447;-76
2024/02/10 04:54:53;;;;;;;22.40;15.60;;;;;;;6.44;86.68;95116.45;104668;1270;100172;-80
2024/02/10 04:58:00;;;;;;;25.60;16.80;;;;;;;6.43;86.78;95117.08;104712;1269;97444;-80
2024/02/10 05:00:40;;;;;;;22.00;16.40;;;;;;;6.41;86.88;95107.17;104739;1269;97086;-80
2024/02/10 05:03:43;;;;;;;25.40;17.20;;;;;;;6.42;86.96;95119.89;104708;1262;102272;-80
2024/02/10 05:06:58;;;;;;;23.50;15.10;;;;;;;6.44;87.04;95115.48;104654;1273;100943;-81
2024/02/10 05:10:06;;;;;;;23.90;15.60;;;;;;;6.44;87.06;95110.13;104612;1263;99779;-82
2024/02/10 05:12:55;;;;;;;32.10;16.70;;;;;;;6.44;87.09;95108.63;104668;1262;96599;-83
2024/02/10 05:16:03;;;;;;;21.30;16.40;;;;;;;6.44;87.21;95108.68;104711;1269;97099;-85
2024/02/10 05:19:09;;;;;;;24.60;16.80;;;;;;;6.43;87.21;95107.21;100770;1270;5394376;-88
2024/02/10 05:21:57;;;;;;;25.30;17.10;;;;;;;6.42;87.36;95112.10;104644;1263;101385;-87
2024/02/10 05:25:00;;;;;;;26.40;17.70;;;;;;;6.42;87.35;95110.13;104586;1263;99560;-86
2024/02/10 05:28:00;;;;;;;28.10;19.80;;;;;;;6.46;87.43;95113.11;104651;1270;97265;-90
2024/02/10 05:30:59;;;;;;;26.80;19.00;;;;;;;6.48;87.48;95112.52;104718;1258;97183;-83
2024/02/10 05:33:43;;;;;;;27.00;19.90;;;;;;;6.45;87.42;95121.19;104668;1270;102296;-86
2024/02/10 05:36:49;;;;;;;30.70;20.00;;;;;;;6.41;87.49;95112.05;104706;1270;101488;-83
2024/02/10 05:39:56;;;;;;;26.40;19.10;;;;;;;6.40;87.59;95111.61;104602;1272;99997;-83
2024/02/10 05:42:39;;;;;;;31.90;20.80;;;;;;;6.39;87.57;95122.33;104627;1270;96651;-81
2024/02/10 05:45:34;;;;;;;36.80;25.20;;;;;;;6.40;87.69;95116.86;104659;1271;96553;-83
2024/02/10 05:48:41;;;;;;;36.90;26.20;;;;;;;6.41;87.62;95121.16;104594;1262;102207;-83
2024/02/10 05:51:38;;;;;;;41.90;26.30;;;;;;;6.42;87.71;95125.13;104665;1263;101680;-84
2024/02/10 05:54:27;;;;;;;33.40;21.50;;;;;;;6.44;87.81;95130.61;104589;1275;108006;-81
2024/02/10 05:57:35;;;;;;;37.00;24.50;;;;;;;6.43;87.72;95130.30;104628;1269;97790;-84
2024/02/10 06:00:43;;;;;;;40.20;25.00;;;;;;;6.41;87.76;95131.34;104590;1263;97316;-83
2024/02/10 06:03:33;;;;;;;35.20;24.90;;;;;;;6.41;87.76;95131.02;104582;1264;101250;-83
2024/02/10 06:06:40;;;;;;;39.60;25.90;;;;;;;6.41;87.77;95123.58;104592;1260;101422;-82
2024/02/10 06:09:37;;;;;;;33.70;24.60;;;;;;;6.42;87.76;95120.69;104538;1263;100097;-80
2024/02/10 06:12:34;;;;;;;34.80;24.60;;;;;;;6.42;87.92;95124.51;104640;1262;97480;-78
2024/02/10 06:15:25;;;;;;;31.50;23.40;;;;;;;6.42;88.12;95134.70;104703;1261;97504;-80
2024/02/10 06:18:33;;;;;;;35.90;24.30;;;;;;;6.40;88.02;95133.90;104647;1260;101069;-80
2024/02/10 06:21:22;;;;;;;36.20;24.00;;;;;;;6.37;88.08;95132.10;104654;1270;101334;-80
2024/02/10 06:24:24;;;;;;;37.80;23.80;;;;;;;6.39;88.18;95142.30;104703;1269;98980;-80
2024/02/10 06:27:34;;;;;;;37.70;26.70;;;;;;;6.39;88.27;95145.75;104579;1261;97791;-81
2024/02/10 06:30:41;;;;;;;32.50;25.00;;;;;;;6.39;88.34;95140.92;104672;1263;97080;-81
2024/02/10 06:33:31;;;;;;;35.40;27.50;;;;;;;6.40;88.42;95137.88;104596;1259;101225;-82
2024/02/10 06:36:39;;;;;;;36.50;25.20;;;;;;;6.41;88.40;95137.50;104607;1270;100348;-80
2024/02/10 06:39:30;;;;;;;65.50;37.90;;;;;;;6.41;88.47;95135.46;104599;1260;98480;-79
2024/02/10 06:42:37;;;;;;;42.40;28.60;;;;;;;6.43;88.50;95134.44;104632;1261;96608;-81
2024/02/10 06:45:11;;;;;;;43.30;31.60;;;;;;;6.45;88.58;95133.52;104675;1260;96476;-79
2024/02/10 06:48:05;;;;;;;41.80;28.10;;;;;;;6.48;88.58;95130.16;104660;1261;101327;-77
2024/02/10 06:51:02;;;;;;;37.70;26.30;;;;;;;6.52;88.72;95128.11;104695;1261;100440;-78
2024/02/10 06:54:10;;;;;;;40.20;27.50;;;;;;;6.56;88.89;95130.34;104660;1258;99013;-77
2024/02/10 06:57:17;;;;;;;42.60;28.40;;;;;;;6.59;88.84;95136.88;104627;1269;97995;-78
2024/02/10 07:00:24;;;;;;;50.80;32.50;;;;;;;6.61;88.93;95138.95;104608;1257;97953;-77
2024/02/10 07:03:31;;;;;;;50.90;34.30;;;;;;;6.62;89.00;95138.88;104609;1258;101260;-79
2024/02/10 07:06:38;;;;;;;64.90;37.60;;;;;;;6.66;89.12;95137.70;104740;1258;101338;-81
2024/02/10 07:09:38;;;;;;;58.50;38.80;;;;;;;6.72;89.13;95135.02;104585;1260;107237;-78
2024/02/10 07:12:45;;;;;;;55.80;37.70;;;;;;;6.77;89.17;95142.98;104578;1267;97594;-77
2024/02/10 07:15:36;;;;;;;52.00;33.90;;;;;;;6.83;89.36;95144.16;104580;1260;96972;-77
2024/02/10 07:18:27;;;;;;;40.80;29.10;;;;;;;6.90;89.30;95146.94;104524;1258;100948;-78
2024/02/10 07:21:27;;;;;;;40.70;27.90;;;;;;;6.95;89.21;95151.01;104579;1270;100430;-79
2024/02/10 07:24:33;;;;;;;42.30;28.10;;;;;;;7.00;89.19;95149.89;104714;1257;99985;-77
2024/02/10 07:27:36;;;;;;;42.80;28.70;;;;;;;7.01;89.18;95141.64;104599;1262;96642;-78
2024/02/10 07:30:23;;;;;;;;;;;;;;;7.01;89.19;95146.31;104648;1257;97323;-78
2024/02/10 07:33:30;;;;;;;52.70;35.30;;;;;;;7.03;89.37;95143.13;104600;1261;108900;-79
2024/02/10 07:36:37;;;;;;;53.10;37.50;;;;;;;7.06;89.39;95139.30;104536;1266;101061;-79
2024/02/10 07:39:40;;;;;;;53.40;37.70;;;;;;;7.08;89.36;95135.13;104561;1263;100052;-80
2024/02/10 07:42:46;;;;;;;53.70;36.80;;;;;;;7.12;89.42;95135.71;104608;1274;96568;-80
2024/02/10 07:45:55;;;;;;;46.70;34.20;;;;;;;7.17;89.54;95143.46;104620;1270;97061;-78
2024/02/10 07:48:45;;;;;;;49.10;34.10;;;;;;;7.21;89.83;95141.94;104509;1261;101399;-77
2024/02/10 07:51:47;;;;;;;48.60;33.60;;;;;;;7.25;89.69;95138.98;104612;1270;100050;-76
2024/02/10 07:54:56;;;;;;;52.00;34.20;;;;;;;7.31;89.75;95134.23;104793;1269;99217;-77
2024/02/10 07:57:56;;;;;;;51.70;34.60;;;;;;;7.38;89.89;95131.27;104656;1264;97296;-76
2024/02/10 08:01:03;;;;;;;49.30;35.10;;;;;;;7.46;89.91;95134.98;104681;1261;97905;-77
2024/02/10 08:04:09;;;;;;;49.80;34.50;;;;;;;7.54;89.88;95138.06;104660;1264;101343;-77
2024/02/10 08:07:16;;;;;;;59.30;36.70;;;;;;;7.60;89.95;95138.57;104657;1260;100845;-77
2024/02/10 08:10:23;;;;;;;55.30;36.60;;;;;;;7.67;90.07;95142.47;104681;1260;98945;-77
2024/02/10 08:13:21;;;;;;;56.30;37.60;;;;;;;7.76;90.09;95140.39;104640;1261;96953;-78
2024/02/10 08:16:28;;;;;;;51.30;34.80;;;;;;;7.84;90.04;95138.89;104620;1263;97096;-77
2024/02/10 08:19:36;;;;;;;55.60;33.10;;;;;;;7.95;89.93;95139.34;104613;1261;100956;-77
2024/02/10 08:22:42;;;;;;;35.30;25.40;;;;;;;8.06;90.03;95143.84;104648;1258;100161;-77
2024/02/10 08:25:32;;;;;;;37.50;26.30;;;;;;;8.18;89.93;95149.58;104701;1261;99212;-78
2024/02/10 08:28:30;;;;;;;38.50;26.70;;;;;;;8.29;90.10;95146.63;104625;1260;96574;-78
2024/02/10 08:31:30;;;;;;;35.60;26.00;;;;;;;8.45;90.09;95148.71;104663;1260;97781;-77
2024/02/10 08:34:38;;;;;;;29.60;23.60;;;;;;;8.57;90.05;95151.15;104664;1261;101264;-79
2024/02/10 08:37:45;;;;;;;26.90;18.80;;;;;;;8.68;89.85;95149.33;104197;1267;100238;-77
2024/02/10 08:40:53;;;;;;;26.50;20.60;;;;;;;8.81;89.85;95145.91;104204;1268;100078;-79
2024/02/10 08:44:00;;;;;;;27.10;20.60;;;;;;;8.97;89.97;95145.36;104161;1275;98188;-78
2024/02/10 08:47:06;;;;;;;28.10;19.50;;;;;;;9.15;90.16;95144.54;104130;1271;98124;-84
2024/02/10 08:50:15;;;;;;;24.00;16.20;;;;;;;9.41;90.13;95147.05;104395;1264;102444;-83
2024/02/10 08:53:21;;;;;;;18.10;12.90;;;;;;;9.73;89.78;95148.93;104064;1277;100505;-84
2024/02/10 08:56:11;;;;;;;15.20;11.40;;;;;;;10.03;89.32;95152.86;104191;1275;99028;-85
2024/02/10 08:59:20;;;;;;;13.60;7.30;;;;;;;10.21;88.84;95149.58;104249;1267;96660;-82
2024/02/10 09:02:27;;;;;;;8.20;6.10;;;;;;;10.33;88.12;95147.41;104228;1267;97032;-80
2024/02/10 09:05:34;;;;;;;6.30;4.90;;;;;;;10.43;88.01;95149.17;104182;1270;101640;-79
2024/02/10 09:08:43;;;;;;;7.90;4.60;;;;;;;10.53;87.35;95148.77;104268;1277;99497;-82
2024/02/10 09:11:49;;;;;;;6.70;4.20;;;;;;;10.58;87.01;95147.77;104268;1262;98589;-81
2024/02/10 09:14:56;;;;;;;6.90;4.60;;;;;;;10.64;87.12;95145.51;104418;1267;97602;-79
2024/02/10 09:18:03;;;;;;;7.70;4.70;;;;;;;10.73;87.01;95144.65;104677;1261;96998;-82
2024/02/10 09:21:17;;;;;;;6.50;4.50;;;;;;;10.81;86.73;95145.59;104697;1261;102815;-84
2024/02/10 09:24:25;;;;;;;22.00;10.80;;;;;;;11.11;86.62;95144.12;104607;1260;101716;-84
2024/02/10 09:27:34;;;;;;;14.40;6.70;;;;;;;11.48;85.66;95138.43;104613;1261;100041;-85
2024/02/10 09:30:35;;;;;;;16.10;8.40;;;;;;;11.82;85.38;95134.02;104675;1260;97765;-88
2024/02/10 09:33:35;;;;;;;13.60;6.60;;;;;;;12.05;84.60;95133.59;104710;1261;97075;-82
2024/02/10 09:36:43;;;;;;;7.30;4.40;;;;;;;12.26;83.33;95131.13;104697;1256;101800;-85
2024/02/10 09:39:50;;;;;;;10.20;5.80;;;;;;;12.54;81.41;95127.59;104619;1262;101393;-85
2024/02/10 09:42:53;;;;;;;6.20;4.00;;;;;;;12.76;80.39;95128.72;104670;1260;99581;-78
2024/02/10 09:46:01;;;;;;;4.70;3.60;;;;;;;13.03;80.22;95130.33;104618;1269;97208;-78
2024/02/10 09:49:08;;;;;;;5.20;2.90;;;;;;;13.28;77.66;95136.19;104638;1264;97033;-77
2024/02/10 09:52:15;;;;;;;4.30;2.70;;;;;;;13.49;74.47;95136.72;104586;1260;100724;-78
2024/02/10 09:55:22;;;;;;;5.60;3.40;;;;;;;13.62;72.32;95141.31;104626;1256;101659;-78
2024/02/10 09:58:29;;;;;;;4.40;3.00;;;;;;;13.69;71.53;95147.27;104595;1261;98603;-79
2024/02/10 10:01:29;;;;;;;5.40;2.70;;;;;;;13.63;72.11;95146.35;104670;1272;97411;-79
2024/02/10 10:04:36;;;;;;;4.00;3.20;;;;;;;13.46;71.88;95148.16;104642;1277;97379;-81
2024/02/10 10:07:43;;;;;;;5.30;3.00;;;;;;;13.34;72.02;95155.91;104719;1257;102515;-80
2024/02/10 10:10:49;;;;;;;3.40;2.50;;;;;;;13.21;71.66;95155.58;104743;1260;100607;-81
2024/02/10 10:13:57;;;;;;;4.70;2.80;;;;;;;13.11;71.17;95163.11;104654;1260;107276;-79
2024/02/10 10:17:16;;;;;;;3.90;2.50;;;;;;;12.99;69.64;95160.63;104686;1260;96590;-81
2024/02/10 10:20:20;;;;;;;3.20;2.20;;;;;;;12.87;68.26;95159.56;104413;1270;97079;-82
2024/02/10 10:23:20;;;;;;;5.20;2.10;;;;;;;12.72;67.38;95158.45;104672;1261;102043;-79
2024/02/10 10:26:26;;;;;;;4.80;1.80;;;;;;;12.61;67.34;95168.27;104712;1261;101205;-79
2024/02/10 10:29:33;;;;;;;5.30;2.20;;;;;;;12.47;64.86;95171.14;104634;1262;99960;-80
2024/02/10 10:32:40;;;;;;;4.00;1.80;;;;;;;12.38;65.90;95166.25;104788;1264;96656;-78
2024/02/10 10:35:31;;;;;;;4.30;2.00;;;;;;;12.39;68.12;95164.41;104749;1257;97483;-79
2024/02/10 10:38:38;;;;;;;4.60;1.90;;;;;;;12.44;68.67;95155.83;104616;1269;102692;-80
2024/02/10 10:41:46;;;;;;;3.40;2.00;;;;;;;12.48;68.86;95149.16;104605;1264;101476;-81
2024/02/10 10:44:54;;;;;;;5.10;2.50;;;;;;;12.53;68.92;95143.46;104658;1257;98920;-80
2024/02/10 10:48:01;;;;;;;5.60;1.90;;;;;;;12.56;68.38;95139.64;104526;1260;96759;-86
2024/02/10 10:51:10;;;;;;;4.50;2.20;;;;;;;12.68;66.86;95123.84;104611;1261;97151;-86
2024/02/10 10:54:16;;;;;;;5.00;2.30;;;;;;;12.95;65.84;95118.14;104721;1263;102209;-83
2024/02/10 10:57:22;;;;;;;6.00;3.30;;;;;;;13.22;66.18;95120.34;104609;1261;101530;-83
2024/02/10 11:00:29;;;;;;;5.10;2.40;;;;;;;13.43;62.98;95135.02;104641;1261;99638;-82
2024/02/10 11:03:36;;;;;;;4.80;2.20;;;;;;;13.59;62.37;95131.58;104602;1262;96639;-85
2024/02/10 11:06:42;;;;;;;6.80;2.70;;;;;;;13.90;64.94;95129.48;104660;1260;97130;-86
2024/02/10 11:09:49;;;;;;;5.40;2.90;;;;;;;14.30;64.03;95135.45;104679;1261;103464;-86
2024/02/10 11:12:57;;;;;;;5.80;1.90;;;;;;;14.67;63.09;95140.23;104749;1260;101441;-84
2024/02/10 11:16:04;;;;;;;4.60;1.60;;;;;;;14.91;60.64;95134.84;104731;1261;99915;-82
2024/02/10 11:19:17;;;;;;;3.70;1.80;;;;;;;14.79;58.47;95135.98;104761;1258;97205;-81
2024/02/10 11:22:26;;;;;;;7.20;2.20;;;;;;;14.53;59.56;95136.72;104662;1259;96650;-79
2024/02/10 11:25:36;;;;;;;3.20;2.00;;;;;;;14.25;59.38;95138.00;104708;1261;101274;-82
2024/02/10 11:28:43;;;;;;;6.80;2.40;;;;;;;14.08;59.77;95139.88;104624;1260;100222;-80
2024/02/10 11:31:51;;;;;;;4.00;2.00;;;;;;;14.15;59.85;95137.19;104637;1258;100085;-81
2024/02/10 11:34:58;;;;;;;4.50;2.10;;;;;;;14.25;58.08;95135.82;104620;1262;96656;-81
2024/02/10 11:38:05;;;;;;;3.60;2.30;;;;;;;14.49;58.70;95130.80;104572;1257;97029;-80
2024/02/10 11:41:12;;;;;;;3.70;1.90;;;;;;;14.80;58.30;95129.78;104510;1262;102544;-82
2024/02/10 11:44:18;;;;;;;3.90;2.40;;;;;;;15.02;58.82;95138.22;104575;1260;100035;-81
2024/02/10 11:47:08;;;;;;;5.40;1.80;;;;;;;15.30;59.05;95130.11;104600;1262;99980;-82
2024/02/10 11:50:15;;;;;;;3.00;2.10;;;;;;;15.50;56.53;95125.08;104600;1261;97902;-81
2024/02/10 11:53:22;;;;;;;4.00;2.00;;;;;;;15.59;56.12;95138.54;104612;1261;97171;-84
2024/02/10 11:56:26;;;;;;;4.70;1.80;;;;;;;15.71;55.69;95135.23;104579;1274;102235;-82
2024/02/10 11:59:27;;;;;;;1.60;1.40;;;;;;;15.94;55.53;95142.79;104688;1277;103718;-81
2024/02/10 12:02:26;;;;;;;3.60;1.80;;;;;;;16.05;55.32;95134.46;104570;1262;98823;-78
2024/02/10 12:05:34;;;;;;;5.90;1.60;;;;;;;16.15;53.45;95133.79;104726;1262;96832;-78
2024/02/10 12:08:43;;;;;;;4.90;1.30;;;;;;;16.10;51.80;95135.79;104666;1272;97767;-79
2024/02/10 12:11:40;;;;;;;2.70;1.50;;;;;;;15.95;52.91;95138.20;104692;1261;102363;-78
2024/02/10 12:14:47;;;;;;;2.90;1.50;;;;;;;16.06;54.72;95137.72;104666;1255;101042;-78
2024/02/10 12:17:55;;;;;;;4.10;1.70;;;;;;;16.18;53.88;95136.29;104710;1260;98779;-78
2024/02/10 12:21:02;;;;;;;3.40;1.70;;;;;;;16.00;51.64;95130.33;104651;1268;97807;-78
2024/02/10 12:24:09;;;;;;;5.70;1.70;;;;;;;15.78;53.22;95126.53;104682;1260;98293;-78
2024/02/10 12:26:58;;;;;;;5.90;1.60;;;;;;;15.73;52.07;95125.63;104660;1257;101025;-77
2024/02/10 12:30:05;;;;;;;4.50;1.40;;;;;;;15.63;53.59;95124.40;104617;1267;100422;-77
2024/02/10 12:33:02;;;;;;;5.90;2.00;;;;;;;15.68;54.67;95131.48;104572;1279;99150;-79
2024/02/10 12:35:55;;;;;;;5.60;1.90;;;;;;;15.79;53.86;95129.02;104611;1258;96818;-78
2024/02/10 12:39:05;;;;;;;3.80;1.50;;;;;;;15.77;53.87;95124.04;104525;1263;96588;-77
2024/02/10 12:42:13;;;;;;;2.60;1.60;;;;;;;15.67;53.07;95125.85;104651;1260;110406;-79
2024/02/10 12:45:20;;;;;;;2.40;1.60;;;;;;;15.59;53.98;95118.64;104674;1259;100468;-77
2024/02/10 12:48:27;;;;;;;2.40;1.70;;;;;;;15.54;52.99;95122.25;104610;1260;99358;-81
2024/02/10 12:51:34;;;;;;;2.70;1.60;;;;;;;15.42;53.88;95125.37;104655;1262;96633;-81
2024/02/10 12:54:36;;;;;;;5.40;2.60;;;;;;;15.37;54.17;95127.23;104636;1261;96479;-83
2024/02/10 12:57:43;;;;;;;2.80;1.50;;;;;;;15.34;53.60;95126.52;104732;1260;100999;-78
2024/02/10 13:00:50;;;;;;;3.90;1.50;;;;;;;15.24;53.53;95125.33;104701;1261;100408;-81
2024/02/10 13:03:59;;;;;;;4.20;3.30;;;;;;;15.19;54.19;95126.94;104611;1263;98380;-78
2024/02/10 13:07:06;;;;;;;2.60;1.80;;;;;;;15.21;55.12;95135.76;104654;1260;97912;-79
2024/02/10 13:10:19;;;;;;;3.30;2.00;;;;;;;15.31;55.40;95141.59;104696;1260;96997;-78
2024/02/10 13:13:29;;;;;;;2.00;1.70;;;;;;;15.34;54.16;95141.80;104733;1262;101048;-77
2024/02/10 13:16:36;;;;;;;3.30;1.90;;;;;;;15.27;53.83;95141.20;104576;1261;100358;-88
2024/02/10 13:19:37;;;;;;;2.90;1.40;;;;;;;15.21;53.59;95140.92;104658;1261;100014;-85
2024/02/10 13:22:44;;;;;;;2.70;1.60;;;;;;;15.21;53.88;95147.28;104648;1261;96639;-85
2024/02/10 13:25:38;;;;;;;3.50;1.50;;;;;;;15.21;53.90;95149.13;104657;1262;96834;-84
2024/02/10 13:28:45;;;;;;;2.90;1.70;;;;;;;15.22;54.49;95151.33;104639;1257;100913;-86
2024/02/10 13:31:45;;;;;;;3.40;1.40;;;;;;;15.28;53.43;95152.77;104715;1261;101926;-81
2024/02/10 13:34:55;;;;;;;6.00;2.00;;;;;;;15.24;53.80;95154.34;104626;1273;99086;-81
2024/02/10 14:01:18;;;;;;;6.90;4.10;;;;;;;14.24;53.13;95159.02;104633;1261;102255;-80
2024/02/10 14:04:39;;;;;;;5.50;4.20;;;;;;;14.14;53.13;95160.86;104621;1272;101146;-81
2024/02/10 14:10:57;;;;;;;10.00;4.70;;;;;;;13.93;53.06;95168.18;104709;1261;97254;-78
2024/02/10 14:14:04;;;;;;;19.10;9.30;;;;;;;13.86;53.91;95169.99;105090;1263;97941;-79
2024/02/10 14:17:14;;;;;;;6.50;3.30;;;;;;;13.81;54.25;95165.48;104702;1260;102288;-79
2024/02/10 14:20:26;;;;;;;6.00;2.60;;;;;;;13.75;53.91;95164.08;104770;1260;101346;-78
2024/02/10 14:23:33;;;;;;;4.70;2.50;;;;;;;13.70;54.69;95158.27;104653;1262;98998;-82
2024/02/10 14:26:52;;;;;;;6.50;4.10;;;;;;;13.66;54.73;95158.95;104621;1261;97127;-78